Meath Environmental Platform

Observations for Trim Market St

Time AQI Temp °C Hum % Pres Pa CO μg/m³ H₂S μg/m³ NO μg/m³ NO₂ μg/m³ O₃ μg/m³ SO₂ μg/m³ PM1 μg/m³ PM2.5 μg/m³ PM10 μg/m³
Wednesday 15 July 2026
06:34 1 18.1 79 2,147,483,647 0.23 0 0 3.81 14.42 0 7.84 11.63 16.14
06:33 1 18.1 79 2,147,483,647 0.22 0 0 6 16.5 0 10.69 14.46 21.29
06:32 1 18 79 2,147,483,647 0.24 0 0 5.32 14.84 0 7.13 12.09 17.85
06:31 1 18 79 2,147,483,647 0.22 0 0.31 5.11 15.41 0 9.98 13.98 20.13
06:30 1 18 79 2,147,483,647 0.22 0 0 5.31 13.33 0 9.26 13.03 18.99
06:29 1 18 79 2,147,483,647 0.24 0 0 5.1 14.01 0 9.98 13.97 20.69
06:28 1 17.9 79 2,147,483,647 0.25 0 0 6.02 14.48 0 10.69 13.49 22.39
06:27 1 17.9 79 2,147,483,647 0.23 0 0 4.82 14.9 0 10.69 14.44 21.82
06:26 1 17.9 79 2,147,483,647 0.23 0 0 5.52 13.43 0 7.84 11.13 16.1
06:25 1 17.8 79 2,147,483,647 0.23 0 0.06 4.23 22.3 0 10.69 13.96 21.23
06:22 1 17.8 80 2,147,483,647 0.23 0 0 6.02 13.89 0 9.98 14.42 19.51
06:20 1 17.8 80 2,147,483,647 0.22 0 0 5.92 13.59 0 8.55 13 18.37
06:17 1 17.7 80 2,147,483,647 0.23 0 0 5.74 16.5 0 8.55 13.47 18.93
06:10 1 17.5 80 2,147,483,647 0.21 0 0 5.28 18.91 0 11.4 14.88 20.05
06:08 1 17.5 80 2,147,483,647 0.2 0 0.09 7.68 14.53 0 8.55 11.57 16.07
06:07 1 17.5 80 2,147,483,647 0.2 0 0 5.78 15.03 0 9.26 12.51 18.35
06:06 1 17.5 80 2,147,483,647 0.2 0 0 5.38 13 0 10.69 13.93 18.91
06:05 1 17.5 80 2,147,483,647 0.2 0 0 5.88 16.83 0 12.11 14.4 21.19
06:04 1 17.5 80 2,147,483,647 0.21 0 0 5.58 14.98 0 8.55 11.1 18.91
06:01 1 17.4 80 2,147,483,647 0.21 0 0 5.81 12.76 0 9.26 12.99 18.91